createdAt,value
2023-05-09T00:00:49.142Z,9.03
2023-05-09T00:03:17.163Z,9.15
2023-05-09T00:05:46.200Z,10.55
2023-05-09T00:08:14.130Z,11.56
2023-05-09T00:10:42.017Z,10.95
2023-05-09T00:13:09.841Z,10.26
2023-05-09T00:15:37.819Z,9.80
2023-05-09T00:18:06.016Z,9.47
2023-05-09T00:20:34.197Z,9.22
2023-05-09T00:23:02.050Z,9.00
2023-05-09T00:25:30.015Z,8.82
2023-05-09T00:27:57.953Z,9.07
2023-05-09T00:30:26.047Z,10.53
2023-05-09T00:32:54.030Z,11.46
2023-05-09T00:35:21.977Z,10.82
2023-05-09T00:37:49.854Z,10.13
2023-05-09T00:40:17.644Z,9.65
2023-05-09T00:42:45.618Z,9.32
2023-05-09T00:45:13.647Z,9.05
2023-05-09T00:47:41.641Z,8.83
2023-05-09T00:50:10.521Z,8.63
2023-05-09T00:52:38.810Z,8.94
2023-05-09T00:55:08.374Z,10.44
2023-05-09T00:57:36.717Z,11.29
2023-05-09T01:00:05.548Z,10.60
2023-05-09T01:02:33.614Z,9.89
2023-05-09T01:05:01.972Z,9.39
2023-05-09T01:07:38.278Z,9.05
2023-05-09T01:10:16.906Z,8.78
2023-05-09T01:12:54.780Z,8.93
2023-05-09T01:15:47.157Z,10.45
2023-05-09T01:18:19.433Z,11.22
2023-05-09T01:20:58.678Z,10.42
2023-05-09T01:23:36.275Z,9.72
2023-05-09T01:26:49.952Z,9.24
2023-05-09T01:29:26.825Z,8.82
2023-05-09T01:31:56.652Z,8.55
2023-05-09T01:34:27.208Z,8.72
2023-05-09T01:36:59.794Z,10.15
2023-05-09T01:39:28.821Z,11.07
2023-05-09T01:41:58.329Z,10.40
2023-05-09T01:44:26.869Z,9.65
2023-05-09T01:46:57.589Z,9.13
2023-05-09T01:49:26.368Z,8.76
2023-05-09T01:51:54.192Z,8.46
2023-05-09T01:54:22.732Z,8.50
2023-05-09T01:56:51.240Z,9.81
2023-05-09T01:59:19.396Z,11.02
2023-05-09T02:01:48.164Z,10.72
2023-05-09T02:04:16.516Z,9.87
2023-05-09T02:06:44.739Z,9.25
2023-05-09T02:09:13.125Z,8.82
2023-05-09T02:11:40.971Z,8.46
2023-05-09T02:14:08.972Z,8.57
2023-05-09T02:16:39.519Z,9.96
2023-05-09T02:19:07.365Z,10.95
2023-05-09T02:21:35.797Z,10.32
2023-05-09T02:24:03.925Z,9.53
2023-05-09T02:26:31.908Z,8.96
2023-05-09T02:29:01.186Z,8.57
2023-05-09T02:31:29.755Z,8.23
2023-05-09T02:33:57.795Z,8.37
2023-05-09T02:36:25.653Z,9.75
2023-05-09T02:38:53.727Z,10.96
2023-05-09T02:41:22.137Z,10.79
2023-05-09T02:43:49.932Z,9.89
2023-05-09T02:46:17.927Z,9.20
2023-05-09T02:48:45.910Z,8.72
2023-05-09T02:51:13.738Z,8.36
2023-05-09T02:53:41.591Z,8.98
2023-05-09T02:56:10.899Z,10.37
2023-05-09T02:58:38.672Z,10.98
2023-05-09T03:01:06.490Z,10.15
2023-05-09T03:03:34.728Z,9.36
2023-05-09T03:06:02.622Z,8.80
2023-05-09T03:08:31.156Z,8.39
2023-05-09T03:10:58.984Z,8.46
2023-05-09T03:13:26.905Z,9.80
2023-05-09T03:15:54.854Z,10.64
2023-05-09T03:18:22.839Z,9.94
2023-05-09T03:20:51.356Z,9.18
2023-05-09T03:23:19.114Z,8.61
2023-05-09T03:25:46.885Z,8.56
2023-05-09T03:28:14.754Z,9.83
2023-05-09T03:30:42.620Z,10.71
2023-05-09T03:33:10.683Z,10.03
2023-05-09T03:35:38.496Z,9.25
2023-05-09T03:38:06.265Z,8.68
2023-05-09T03:40:34.118Z,8.26
2023-05-09T03:43:01.876Z,8.28
2023-05-09T03:45:29.608Z,9.58
2023-05-09T03:47:57.438Z,10.83
2023-05-09T03:50:25.550Z,10.90
2023-05-09T03:52:55.193Z,9.97
2023-05-09T03:55:23.836Z,9.28
2023-05-09T03:57:52.027Z,8.84
2023-05-09T04:00:21.813Z,8.57
2023-05-09T04:02:50.391Z,9.30
2023-05-09T04:05:18.728Z,10.85
2023-05-09T04:07:46.612Z,11.29
2023-05-09T04:10:14.395Z,10.60
2023-05-09T04:12:42.230Z,10.10
2023-05-09T04:15:11.143Z,9.80
2023-05-09T04:17:39.248Z,9.66
2023-05-09T04:20:08.336Z,9.58
2023-05-09T04:22:36.341Z,9.54
2023-05-09T04:25:04.794Z,9.50
2023-05-09T04:27:32.620Z,9.48
2023-05-09T04:30:00.485Z,9.50
2023-05-09T04:32:28.313Z,9.56
2023-05-09T04:34:56.165Z,9.61
2023-05-09T04:37:23.999Z,9.68
2023-05-09T04:39:51.961Z,9.77
2023-05-09T04:42:19.832Z,9.84
2023-05-09T04:44:49.405Z,9.91
2023-05-09T04:47:17.312Z,9.98
2023-05-09T04:49:45.176Z,10.04
2023-05-09T04:52:12.939Z,10.09
2023-05-09T04:54:41.092Z,10.15
2023-05-09T04:57:17.273Z,10.20
2023-05-09T04:59:46.135Z,10.25
2023-05-09T05:02:13.947Z,10.30
2023-05-09T05:04:41.948Z,10.33
2023-05-09T05:07:09.838Z,10.35
2023-05-09T05:09:37.658Z,10.34
2023-05-09T05:12:08.372Z,10.32
2023-05-09T05:14:37.326Z,10.30
2023-05-09T05:17:05.248Z,10.29
2023-05-09T05:19:33.162Z,10.29
2023-05-09T05:22:00.874Z,10.31
2023-05-09T05:24:28.588Z,10.36
2023-05-09T05:26:56.365Z,10.41
2023-05-09T05:29:24.402Z,10.47
2023-05-09T05:31:52.423Z,10.54
2023-05-09T05:34:20.520Z,10.62
2023-05-09T05:36:48.245Z,10.71
2023-05-09T05:39:16.198Z,10.83
2023-05-09T05:41:44.001Z,10.95
2023-05-09T05:44:11.832Z,11.08
2023-05-09T05:46:39.606Z,11.20
2023-05-09T05:49:07.473Z,11.31
2023-05-09T05:51:35.385Z,11.45
2023-05-09T05:54:03.437Z,11.60
2023-05-09T05:56:31.212Z,11.76
2023-05-09T05:58:59.071Z,11.93
2023-05-09T06:01:26.936Z,12.07
2023-05-09T06:03:56.076Z,12.23
2023-05-09T06:06:24.378Z,12.41
2023-05-09T06:08:52.303Z,12.62
2023-05-09T06:11:20.112Z,12.88
2023-05-09T06:13:48.161Z,13.25
2023-05-09T06:16:19.922Z,13.69
2023-05-09T06:18:48.710Z,14.19
2023-05-09T06:21:16.662Z,14.66
2023-05-09T06:24:01.414Z,15.13
2023-05-09T06:26:32.408Z,15.68
2023-05-09T06:29:00.259Z,16.16
2023-05-09T06:31:28.136Z,16.57
2023-05-09T06:33:55.946Z,16.90
2023-05-09T06:36:23.692Z,17.15
2023-05-09T06:38:51.524Z,17.41
2023-05-09T06:41:19.323Z,17.62
2023-05-09T06:43:47.855Z,17.77
2023-05-09T06:46:15.899Z,17.81
2023-05-09T06:48:43.795Z,17.78
2023-05-09T06:51:11.680Z,17.74
2023-05-09T06:53:39.429Z,17.73
2023-05-09T06:56:07.303Z,17.75
2023-05-09T06:58:35.265Z,17.82
2023-05-09T07:01:04.513Z,17.96
2023-05-09T07:03:32.384Z,18.09
2023-05-09T07:06:00.216Z,18.14
2023-05-09T07:08:28.027Z,18.24
2023-05-09T07:10:55.942Z,18.20
2023-05-09T07:13:23.869Z,18.29
2023-05-09T07:15:51.830Z,18.36
2023-05-09T07:18:19.752Z,18.42
2023-05-09T07:20:47.902Z,18.52
2023-05-09T07:23:15.938Z,18.55
2023-05-09T07:25:45.246Z,18.64
2023-05-09T07:28:15.067Z,18.68
2023-05-09T07:30:43.747Z,18.69
2023-05-09T07:33:11.624Z,18.74
2023-05-09T07:35:42.253Z,18.78
2023-05-09T07:38:11.085Z,18.81
2023-05-09T07:40:38.965Z,18.79
2023-05-09T07:43:06.843Z,18.79
2023-05-09T07:45:34.975Z,18.84
2023-05-09T07:48:02.881Z,18.89
2023-05-09T07:50:30.802Z,18.93
2023-05-09T07:52:59.719Z,18.97
2023-05-09T07:55:27.649Z,19.01
2023-05-09T07:57:55.565Z,19.05
2023-05-09T08:00:24.127Z,19.12
2023-05-09T08:02:52.570Z,19.19
2023-05-09T08:05:20.622Z,19.22
2023-05-09T08:07:48.506Z,19.24
2023-05-09T08:12:19.164Z,19.23
2023-05-09T08:14:46.332Z,19.20
2023-05-09T08:17:12.924Z,19.15
2023-05-09T08:19:39.380Z,19.14
2023-05-09T08:22:05.971Z,19.12
2023-05-09T08:24:32.577Z,19.12
2023-05-09T08:26:59.503Z,19.14
2023-05-09T08:29:26.340Z,19.18
2023-05-09T08:31:53.180Z,19.22
2023-05-09T08:34:20.700Z,19.24
2023-05-09T08:36:47.694Z,19.25
2023-05-09T08:39:14.322Z,19.27
2023-05-09T08:41:41.771Z,19.29
2023-05-09T08:44:08.730Z,19.31
2023-05-09T08:46:39.160Z,19.38
2023-05-09T08:49:08.463Z,19.45
2023-05-09T08:51:35.984Z,19.51
2023-05-09T08:54:03.093Z,19.55
2023-05-09T08:56:31.499Z,19.54
2023-05-09T08:58:58.366Z,19.53
2023-05-09T09:01:26.252Z,19.58
2023-05-09T09:03:53.805Z,19.62
2023-05-09T09:06:21.919Z,19.65
2023-05-09T09:08:48.696Z,19.63
2023-05-09T09:11:15.812Z,19.65
2023-05-09T09:13:43.598Z,19.70
2023-05-09T09:16:14.436Z,19.76
2023-05-09T09:18:41.068Z,19.78
2023-05-09T09:21:10.106Z,19.83
2023-05-09T09:23:40.143Z,19.92
2023-05-09T09:26:06.814Z,20.03
2023-05-09T09:28:34.309Z,20.14
2023-05-09T09:31:01.297Z,20.22
2023-05-09T09:33:29.185Z,20.28
2023-05-09T09:35:56.455Z,20.35
2023-05-09T09:38:24.216Z,20.42
2023-05-09T09:40:55.496Z,20.52
2023-05-09T09:43:30.204Z,20.65
2023-05-09T09:46:01.044Z,20.78
2023-05-09T09:48:35.195Z,20.87
2023-05-09T09:51:09.418Z,20.91
2023-05-09T09:53:43.109Z,20.95
2023-05-09T09:56:10.088Z,21.06
2023-05-09T09:58:36.612Z,21.12
2023-05-09T10:01:08.649Z,21.15
2023-05-09T10:03:44.636Z,21.14
2023-05-09T10:06:13.958Z,21.16
2023-05-09T10:08:42.391Z,21.16
2023-05-09T10:11:09.850Z,21.19
2023-05-09T10:13:38.230Z,21.23
2023-05-09T10:16:08.374Z,21.25
2023-05-09T10:18:35.833Z,21.29
2023-05-09T10:21:04.590Z,21.32
2023-05-09T10:23:32.717Z,21.35
2023-05-09T10:26:22.226Z,21.36
2023-05-09T10:28:49.442Z,21.38
2023-05-09T10:31:23.117Z,21.37
2023-05-09T10:33:50.883Z,21.39
2023-05-09T10:36:20.220Z,21.44
2023-05-09T10:38:48.453Z,21.46
2023-05-09T10:41:18.096Z,21.44
2023-05-09T10:43:45.592Z,21.40
2023-05-09T10:46:12.995Z,21.39
2023-05-09T10:48:40.569Z,21.42
2023-05-09T10:51:07.753Z,21.47
2023-05-09T10:53:55.612Z,21.51
2023-05-09T10:56:42.793Z,21.55
2023-05-09T10:59:33.694Z,21.57
2023-05-09T11:02:02.277Z,21.57
2023-05-09T11:04:31.647Z,21.55
2023-05-09T11:07:01.271Z,21.53
2023-05-09T11:09:37.449Z,21.50
2023-05-09T11:12:09.788Z,21.46
2023-05-09T11:14:55.443Z,21.43
2023-05-09T11:17:24.733Z,21.36
2023-05-09T11:19:51.204Z,21.19
2023-05-09T11:22:31.692Z,21.14
2023-05-09T11:25:07.577Z,21.08
2023-05-09T11:27:49.968Z,21.06
2023-05-09T11:30:19.300Z,21.02
2023-05-09T11:32:53.086Z,21.02
2023-05-09T11:36:29.714Z,20.91
2023-05-09T11:39:08.689Z,20.88
2023-05-09T11:41:56.683Z,20.85
2023-05-09T11:44:23.774Z,20.86
2023-05-09T11:46:50.287Z,20.89
2023-05-09T11:49:18.860Z,20.92
2023-05-09T11:51:45.322Z,20.91
2023-05-09T11:54:14.288Z,20.91
2023-05-09T11:56:41.495Z,20.88
2023-05-09T11:59:09.883Z,20.84
2023-05-09T12:01:36.847Z,20.85
2023-05-09T12:04:06.847Z,20.88
2023-05-09T12:06:33.730Z,20.88
2023-05-09T12:09:00.215Z,20.92
2023-05-09T12:11:31.605Z,20.98
2023-05-09T12:13:58.300Z,21.00
2023-05-09T12:16:24.793Z,21.01
2023-05-09T12:18:52.712Z,21.01
2023-05-09T12:21:22.134Z,21.02
2023-05-09T12:23:51.273Z,21.02
2023-05-09T12:26:22.031Z,21.01
2023-05-09T12:28:49.518Z,20.97
2023-05-09T12:31:16.734Z,20.95
2023-05-09T12:33:43.319Z,20.94
2023-05-09T12:36:12.401Z,20.95
2023-05-09T12:38:39.300Z,20.94
2023-05-09T12:41:15.439Z,20.93
2023-05-09T12:43:48.425Z,20.94
2023-05-09T12:46:22.177Z,20.91
2023-05-09T12:48:49.335Z,20.90
2023-05-09T12:51:21.220Z,20.86
2023-05-09T12:53:48.000Z,20.81
2023-05-09T12:56:23.649Z,20.68
2023-05-09T12:58:52.829Z,20.57
2023-05-09T13:01:21.756Z,20.53
2023-05-09T13:04:00.256Z,20.45
2023-05-09T13:06:27.127Z,20.43
2023-05-09T13:09:01.839Z,20.38
2023-05-09T13:11:29.018Z,20.33
2023-05-09T13:13:55.744Z,20.25
2023-05-09T13:16:22.622Z,20.20
2023-05-09T13:18:49.338Z,20.15
2023-05-09T13:21:15.878Z,20.10
2023-05-09T13:23:43.888Z,20.03
2023-05-09T13:26:10.519Z,19.98
2023-05-09T13:28:37.066Z,19.95
2023-05-09T13:31:03.686Z,19.93
2023-05-09T13:33:30.455Z,19.90
2023-05-09T13:35:57.052Z,19.88
2023-05-09T13:38:23.735Z,19.86
2023-05-09T13:40:50.948Z,19.84
2023-05-09T13:43:17.535Z,19.83
2023-05-09T13:45:44.040Z,19.78
2023-05-09T13:48:11.350Z,19.75
2023-05-09T13:50:37.947Z,19.73
2023-05-09T13:53:04.504Z,19.69
2023-05-09T13:55:31.069Z,19.63
2023-05-09T13:57:57.696Z,19.57
2023-05-09T14:00:25.903Z,19.53
2023-05-09T14:02:52.398Z,19.51
2023-05-09T14:05:19.280Z,19.49
2023-05-09T14:07:45.829Z,19.44
2023-05-09T14:10:12.591Z,19.38
2023-05-09T14:12:39.877Z,19.33
2023-05-09T14:15:07.829Z,19.28
2023-05-09T14:17:34.588Z,19.25
2023-05-09T14:20:01.224Z,19.22
2023-05-09T14:22:27.781Z,19.16
2023-05-09T14:24:56.673Z,19.12
2023-05-09T14:39:20.452Z,18.87
2023-05-09T14:41:49.485Z,18.89
2023-05-09T14:44:16.939Z,18.90
2023-05-09T14:46:44.202Z,18.91
2023-05-09T14:49:10.887Z,18.91
2023-05-09T14:51:37.409Z,18.91
2023-05-09T14:54:04.700Z,18.89
2023-05-09T14:56:31.400Z,18.86
2023-05-09T14:58:57.937Z,18.84
2023-05-09T15:01:24.743Z,18.80
2023-05-09T15:03:51.447Z,18.78
2023-05-09T15:06:18.217Z,18.77
2023-05-09T15:08:44.826Z,18.76
2023-05-09T15:11:11.477Z,18.76
2023-05-09T15:13:38.136Z,18.75
2023-05-09T15:16:04.936Z,18.72
2023-05-09T15:18:33.190Z,18.69
2023-05-09T15:21:00.510Z,18.68
2023-05-09T15:23:27.457Z,18.66
2023-05-09T15:25:54.049Z,18.65
2023-05-09T15:28:20.484Z,18.64
2023-05-09T15:30:47.996Z,18.64
2023-05-09T15:33:14.565Z,18.63
2023-05-09T15:35:41.801Z,18.63
2023-05-09T15:38:11.449Z,18.61
2023-05-09T15:40:40.463Z,18.61
2023-05-09T15:43:08.466Z,18.62
2023-05-09T15:45:37.303Z,18.62
2023-05-09T15:48:04.338Z,18.62
2023-05-09T15:50:31.019Z,18.61
2023-05-09T15:52:57.661Z,18.61
2023-05-09T15:55:24.554Z,18.61
2023-05-09T15:57:52.084Z,18.59
2023-05-09T16:00:19.006Z,18.57
2023-05-09T16:02:45.585Z,18.55
2023-05-09T16:05:12.443Z,18.54
2023-05-09T16:07:43.583Z,18.52
2023-05-09T16:10:10.240Z,18.47
2023-05-09T16:12:36.904Z,18.48
2023-05-09T16:15:04.711Z,18.47
2023-05-09T16:17:31.352Z,18.46
2023-05-09T16:19:58.352Z,18.45
2023-05-09T16:22:25.582Z,18.42
2023-05-09T16:24:52.398Z,18.40
2023-05-09T16:27:20.009Z,18.37
2023-05-09T16:29:46.533Z,18.35
2023-05-09T16:32:13.089Z,18.34
2023-05-09T16:34:39.810Z,18.33
2023-05-09T16:37:06.399Z,18.31
2023-05-09T16:39:32.939Z,18.29
2023-05-09T16:41:59.919Z,18.26
2023-05-09T16:44:26.846Z,18.22
2023-05-09T16:46:56.813Z,18.19
2023-05-09T16:49:23.508Z,18.18
2023-05-09T16:51:50.183Z,18.16
2023-05-09T16:54:16.816Z,18.12
2023-05-09T16:56:43.499Z,18.09
2023-05-09T16:59:10.152Z,18.05
2023-05-09T17:01:37.236Z,18.02
2023-05-09T17:04:06.129Z,17.99
2023-05-09T17:06:33.689Z,17.97
2023-05-09T17:09:03.590Z,17.93
2023-05-09T17:11:38.969Z,17.90
2023-05-09T17:14:06.070Z,17.87
2023-05-09T17:16:33.468Z,17.84
2023-05-09T17:19:01.739Z,17.80
2023-05-09T17:21:28.900Z,17.76
2023-05-09T17:23:56.457Z,17.73
2023-05-09T17:26:36.562Z,17.69
2023-05-09T17:29:06.440Z,17.65
2023-05-09T17:31:33.294Z,17.61
2023-05-09T17:34:19.820Z,17.57
2023-05-09T17:36:48.227Z,17.53
2023-05-09T17:39:17.792Z,17.50
2023-05-09T17:41:45.829Z,17.45
2023-05-09T17:44:18.410Z,17.40
2023-05-09T17:46:48.491Z,17.36
2023-05-09T17:49:17.305Z,17.30
2023-05-09T17:51:45.358Z,17.25
2023-05-09T17:54:13.447Z,17.20
2023-05-09T17:56:42.268Z,17.15
2023-05-09T17:59:10.628Z,17.10
2023-05-09T18:01:38.837Z,17.05
2023-05-09T18:04:07.966Z,16.99
2023-05-09T18:06:36.731Z,16.93
2023-05-09T18:09:06.133Z,16.89
2023-05-09T18:11:35.262Z,16.83
2023-05-09T18:14:03.729Z,16.77
2023-05-09T18:16:34.066Z,16.71
2023-05-09T18:19:02.208Z,16.65
2023-05-09T18:21:32.263Z,16.59
2023-05-09T18:24:01.418Z,16.52
2023-05-09T18:26:29.698Z,16.46
2023-05-09T18:28:58.275Z,16.39
2023-05-09T18:31:26.541Z,16.32
2023-05-09T18:33:54.711Z,16.25
2023-05-09T18:36:22.944Z,16.18
2023-05-09T18:38:52.902Z,16.11
2023-05-09T18:41:22.354Z,16.03
2023-05-09T18:43:50.561Z,15.96
2023-05-09T18:46:21.447Z,15.88
2023-05-09T18:48:53.901Z,15.82
2023-05-09T18:51:21.883Z,15.75
2023-05-09T18:53:49.722Z,15.68
2023-05-09T18:56:20.523Z,15.61
2023-05-09T18:58:52.463Z,15.54
2023-05-09T19:01:20.671Z,15.47
2023-05-09T19:03:54.092Z,15.40
2023-05-09T19:06:22.399Z,15.35
2023-05-09T19:08:50.310Z,15.29
2023-05-09T19:11:18.470Z,15.24
2023-05-09T19:13:49.321Z,15.19
2023-05-09T19:16:19.869Z,15.14
2023-05-09T19:18:48.949Z,15.09
2023-05-09T19:21:18.999Z,15.05
2023-05-09T19:23:59.487Z,14.99
2023-05-09T19:26:34.143Z,14.95
2023-05-09T19:29:11.160Z,14.91
2023-05-09T19:31:39.463Z,14.86
2023-05-09T19:34:07.706Z,14.83
2023-05-09T19:36:36.130Z,14.79
2023-05-09T19:39:11.465Z,14.76
2023-05-09T19:41:43.284Z,14.71
2023-05-09T19:44:12.266Z,14.68
2023-05-09T19:46:43.086Z,14.64
2023-05-09T19:49:11.860Z,14.60
2023-05-09T19:51:39.901Z,14.56
2023-05-09T19:54:09.634Z,14.53
2023-05-09T19:56:37.583Z,14.49
2023-05-09T19:59:23.912Z,14.45
2023-05-09T20:01:51.911Z,14.41
2023-05-09T20:04:21.962Z,14.38
2023-05-09T20:06:50.743Z,14.34
2023-05-09T20:09:21.101Z,14.31
2023-05-09T20:11:50.749Z,14.28
2023-05-09T20:14:19.235Z,14.24
2023-05-09T20:16:47.176Z,14.19
2023-05-09T20:19:15.735Z,14.16
2023-05-09T20:21:43.685Z,14.12
2023-05-09T20:24:11.952Z,14.09
2023-05-09T20:26:39.840Z,14.06
2023-05-09T20:29:08.072Z,14.03
2023-05-09T20:31:36.115Z,14.00
2023-05-09T20:34:04.164Z,13.98
2023-05-09T20:36:32.608Z,13.96
2023-05-09T20:39:00.510Z,13.93
2023-05-09T20:41:28.491Z,13.91
2023-05-09T20:44:03.405Z,13.88
2023-05-09T20:46:31.340Z,13.85
2023-05-09T20:48:59.146Z,13.83
2023-05-09T20:51:27.022Z,13.81
2023-05-09T20:53:54.790Z,13.77
2023-05-09T20:56:22.643Z,13.76
2023-05-09T20:58:50.672Z,13.74
2023-05-09T21:01:18.685Z,13.73
2023-05-09T21:03:46.737Z,13.70
2023-05-09T21:06:14.664Z,13.68
2023-05-09T21:08:43.371Z,13.65
2023-05-09T21:11:11.408Z,13.63
2023-05-09T21:13:39.289Z,13.60
2023-05-09T21:16:07.201Z,13.57
2023-05-09T21:18:35.179Z,13.55
2023-05-09T21:21:07.346Z,13.55
2023-05-09T21:23:35.458Z,13.52
2023-05-09T21:26:03.360Z,13.49
2023-05-09T21:28:31.510Z,13.47
2023-05-09T21:31:01.755Z,13.45
2023-05-09T21:33:30.032Z,13.43
2023-05-09T21:35:59.186Z,13.41
2023-05-09T21:38:27.015Z,13.38
2023-05-09T21:40:55.361Z,13.36
2023-05-09T21:43:23.356Z,13.35
2023-05-09T21:45:51.222Z,13.33
2023-05-09T21:48:19.083Z,13.31
2023-05-09T21:50:47.164Z,13.28
2023-05-09T21:53:14.993Z,13.27
2023-05-09T21:55:42.774Z,13.24
2023-05-09T21:58:10.606Z,13.22
2023-05-09T22:00:38.501Z,13.19
2023-05-09T22:03:06.513Z,13.16
2023-05-09T22:05:34.418Z,13.14
2023-05-09T22:08:02.253Z,13.12
2023-05-09T22:10:30.116Z,13.10
2023-05-09T22:12:58.351Z,13.07
2023-05-09T22:15:27.128Z,13.06
2023-05-09T22:17:54.939Z,13.03
2023-05-09T22:20:22.901Z,13.00
2023-05-09T22:22:50.848Z,12.99
2023-05-09T22:25:18.728Z,12.97
2023-05-09T22:27:46.584Z,12.95
2023-05-09T22:30:14.725Z,12.91
2023-05-09T22:32:43.279Z,12.89
2023-05-09T22:35:11.273Z,12.87
2023-05-09T22:37:39.032Z,12.84
2023-05-09T22:40:07.751Z,12.81
2023-05-09T22:42:35.902Z,12.78
2023-05-09T22:45:04.059Z,12.76
2023-05-09T22:47:31.992Z,12.72
2023-05-09T22:49:59.851Z,12.70
2023-05-09T22:52:27.725Z,12.66
2023-05-09T22:54:55.583Z,12.64
2023-05-09T22:57:23.925Z,12.61
2023-05-09T22:59:53.245Z,12.58
2023-05-09T23:02:21.740Z,12.56
2023-05-09T23:04:49.661Z,12.53
2023-05-09T23:07:17.613Z,12.50
2023-05-09T23:09:45.437Z,12.47
2023-05-09T23:12:13.293Z,12.44
2023-05-09T23:14:41.207Z,12.40
2023-05-09T23:17:09.032Z,12.38
2023-05-09T23:19:37.350Z,12.34
2023-05-09T23:22:05.280Z,12.28
2023-05-09T23:24:33.075Z,12.27
2023-05-09T23:27:02.541Z,12.25
2023-05-09T23:29:30.576Z,12.21
2023-05-09T23:31:58.532Z,12.18
2023-05-09T23:34:26.324Z,12.15
2023-05-09T23:36:54.151Z,12.11
2023-05-09T23:39:22.251Z,12.08
2023-05-09T23:41:50.155Z,12.05
2023-05-09T23:44:18.150Z,12.03
2023-05-09T23:46:46.074Z,12.00
2023-05-09T23:49:14.661Z,11.97
2023-05-09T23:52:00.669Z,11.93
2023-05-09T23:54:28.705Z,11.88
2023-05-09T23:56:57.395Z,11.86
2023-05-09T23:59:25.326Z,11.82
